Time;durP1;ratioP1;P1;durP2;ratioP2;P2;SDS_P1;SDS_P2;PMS_P1;PMS_P2;Temp;Humidity;BMP_temperature;BMP_pressure;BME280_temperature;BME280_humidity;BME280_pressure;Samples;Min_cycle;Max_cycle;Signal;HPM_P1;HPM_P2
2023/08/07 00:01:03;;;;;;;9.57;3.87;;;;;;;20.52;67.62;100391.03;5059828;28;20318;-58
2023/08/07 00:03:35;;;;;;;11.30;4.40;;;;;;;20.56;68.13;100395.25;5069523;28;20281;-57
2023/08/07 00:06:06;;;;;;;6.10;4.07;;;;;;;20.50;69.28;100395.56;5059155;28;20325;-57
2023/08/07 00:08:38;;;;;;;6.27;4.30;;;;;;;20.58;68.98;100385.41;5069878;28;20273;-58
2023/08/07 00:11:09;;;;;;;7.70;4.40;;;;;;;20.71;68.81;100387.38;5058600;28;20343;-57
2023/08/07 00:13:39;;;;;;;7.83;3.70;;;;;;;20.80;67.49;100389.50;5069251;28;20298;-58
2023/08/07 00:16:11;;;;;;;9.63;4.57;;;;;;;20.83;68.07;100386.69;5059669;28;20326;-58
2023/08/07 00:18:42;;;;;;;7.73;3.77;;;;;;;20.82;67.59;100393.78;5068665;28;20274;-58
2023/08/07 00:21:12;;;;;;;12.50;4.20;;;;;;;20.92;68.39;100391.47;5059639;28;20285;-58
2023/08/07 00:23:43;;;;;;;10.50;4.23;;;;;;;20.93;69.26;100393.16;5069706;28;20492;-57
2023/08/07 00:26:14;;;;;;;6.47;4.03;;;;;;;20.88;67.98;100392.59;5058792;28;20376;-58
2023/08/07 00:28:44;;;;;;;7.70;4.90;;;;;;;20.96;68.54;100398.31;5070847;28;20321;-58
2023/08/07 00:31:16;;;;;;;9.10;4.00;;;;;;;21.11;68.85;100397.41;5063471;28;20269;-58
2023/08/07 00:33:51;;;;;;;9.20;4.00;;;;;;;21.24;68.07;100394.03;5056413;28;20633;-58
2023/08/07 00:36:22;;;;;;;9.13;4.10;;;;;;;21.06;67.30;100367.59;5062510;28;20281;-57
2023/08/07 00:38:52;;;;;;;9.80;4.50;;;;;;;21.24;68.79;100392.25;5062403;28;20294;-59
2023/08/07 00:41:23;;;;;;;7.90;4.50;;;;;;;21.35;69.87;100402.25;5073235;28;20293;-57
2023/08/07 00:43:54;;;;;;;5.90;4.47;;;;;;;21.57;69.59;100404.53;5063782;28;20274;-58
2023/08/07 00:46:26;;;;;;;10.33;4.47;;;;;;;21.52;67.95;100390.66;5076190;28;20365;-61
2023/08/07 00:48:57;;;;;;;8.73;4.00;;;;;;;21.44;66.68;100409.72;5063487;28;20297;-58
2023/08/07 00:51:28;;;;;;;5.33;3.93;;;;;;;21.50;68.26;100406.69;5074035;28;20373;-57
2023/08/07 00:53:59;;;;;;;7.53;4.10;;;;;;;21.60;67.38;100401.69;5063017;28;20782;-58
2023/08/07 00:56:30;;;;;;;10.40;4.47;;;;;;;21.59;68.97;100401.75;5073264;28;20710;-59
2023/08/07 00:59:01;;;;;;;6.40;4.13;;;;;;;21.60;68.17;100392.84;5065225;28;20783;-58
2023/08/07 01:01:33;;;;;;;12.53;4.97;;;;;;;21.78;69.56;100402.38;5070736;28;20043;-59
2023/08/07 01:04:04;;;;;;;6.13;3.80;;;;;;;21.75;66.08;100397.25;5104698;28;20289;-59
2023/08/07 01:06:34;;;;;;;6.40;3.97;;;;;;;21.73;67.53;100405.31;5117503;28;20330;-58
2023/08/07 01:09:08;;;;;;;8.90;4.33;;;;;;;21.96;67.95;100400.38;5117742;28;20600;-59
2023/08/07 01:11:45;;;;;;;10.87;4.00;;;;;;;22.03;68.05;100392.88;5096274;28;20059;-58
2023/08/07 01:14:25;;;;;;;14.40;4.60;;;;;;;22.15;67.40;100389.47;5060585;28;20294;-58
2023/08/07 01:17:03;;;;;;;10.83;5.23;;;;;;;22.02;67.09;100392.03;5066945;28;20308;-58
2023/08/07 01:19:35;;;;;;;8.57;4.43;;;;;;;22.05;66.78;100388.31;5079054;28;20366;-58
2023/08/07 01:22:11;;;;;;;9.07;4.73;;;;;;;22.24;67.22;100378.28;5069520;28;20071;-59
2023/08/07 01:24:46;;;;;;;6.63;3.67;;;;;;;22.30;66.98;100393.84;5084127;28;20538;-59
2023/08/07 01:27:35;;;;;;;6.60;4.23;;;;;;;22.24;67.23;100388.91;5102839;28;20876;-58
2023/08/07 01:30:14;;;;;;;9.52;3.85;;;;;;;22.12;67.40;100379.84;5085387;28;20446;-60
2023/08/07 01:32:56;;;;;;;12.40;4.13;;;;;;;22.06;67.28;100382.03;5095688;28;20168;-59
2023/08/07 01:35:31;;;;;;;7.00;3.90;;;;;;;22.20;67.15;100384.72;5084825;28;20043;-59
2023/08/07 01:38:05;;;;;;;10.40;4.27;;;;;;;22.36;66.68;100382.78;5089697;28;20058;-59
2023/08/07 01:40:36;;;;;;;7.60;4.30;;;;;;;22.46;66.82;100382.22;5088378;28;20376;-58
2023/08/07 01:43:07;;;;;;;7.57;4.57;;;;;;;22.58;68.04;100365.44;5061895;28;20052;-58
2023/08/07 01:45:38;;;;;;;6.37;4.37;;;;;;;22.63;65.97;100363.34;5073036;28;20365;-58
2023/08/07 01:48:08;;;;;;;8.93;4.27;;;;;;;22.63;66.17;100374.00;5062162;28;20103;-58
2023/08/07 01:50:40;;;;;;;8.13;4.87;;;;;;;22.72;65.77;100362.75;5073907;28;20061;-59
2023/08/07 01:53:12;;;;;;;8.60;3.80;;;;;;;22.70;64.39;100367.31;5060862;28;20476;-58
2023/08/07 01:55:43;;;;;;;6.83;4.10;;;;;;;22.76;64.84;100358.91;5072619;28;20489;-59
2023/08/07 01:58:13;;;;;;;10.53;4.20;;;;;;;22.90;66.14;100365.16;5062310;28;20473;-58
2023/08/07 02:00:44;;;;;;;9.40;4.30;;;;;;;22.80;63.39;100365.75;5070484;28;20194;-57
2023/08/07 02:03:15;;;;;;;6.70;4.30;;;;;;;22.58;64.02;100352.97;5059976;28;20040;-58
2023/08/07 02:05:47;;;;;;;9.93;4.30;;;;;;;22.56;66.26;100346.91;5073586;28;20144;-58
2023/08/07 02:08:19;;;;;;;10.50;3.83;;;;;;;22.52;64.30;100356.06;5062512;28;20478;-58
2023/08/07 02:10:50;;;;;;;5.67;3.50;;;;;;;22.52;65.52;100345.41;5071521;28;20393;-58
2023/08/07 02:13:20;;;;;;;6.97;4.10;;;;;;;22.75;65.92;100351.88;5070731;28;20055;-61
2023/08/07 02:15:51;;;;;;;7.60;4.07;;;;;;;22.94;64.40;100356.88;5060159;28;20489;-58
2023/08/07 02:18:22;;;;;;;7.70;3.90;;;;;;;23.01;66.38;100346.66;5071756;28;20051;-58
2023/08/07 02:20:53;;;;;;;8.83;3.63;;;;;;;23.15;65.20;100354.59;5062245;28;20112;-58
2023/08/07 02:23:25;;;;;;;7.03;3.93;;;;;;;23.18;65.89;100357.03;5070454;28;20083;-59
2023/08/07 02:25:56;;;;;;;7.33;3.97;;;;;;;23.32;65.10;100358.78;5061700;28;20051;-58
2023/08/07 02:28:27;;;;;;;8.40;3.90;;;;;;;23.24;63.38;100359.31;5071425;28;20126;-59
2023/08/07 02:30:57;;;;;;;7.97;3.47;;;;;;;23.15;63.39;100357.25;5060987;28;20135;-58
2023/08/07 02:33:30;;;;;;;5.27;3.70;;;;;;;23.10;64.88;100348.72;5072160;28;20067;-58
2023/08/07 02:36:01;;;;;;;7.50;4.00;;;;;;;23.30;64.33;100351.84;5060776;28;20066;-58
2023/08/07 02:38:33;;;;;;;8.67;3.63;;;;;;;23.29;63.31;100340.34;5070652;28;20126;-58
2023/08/07 02:41:03;;;;;;;4.60;3.50;;;;;;;23.13;62.71;100350.31;5060600;28;20054;-58
2023/08/07 02:43:34;;;;;;;7.37;3.87;;;;;;;23.15;63.54;100357.25;5072391;28;20050;-58
2023/08/07 02:46:04;;;;;;;10.70;4.10;;;;;;;23.31;64.13;100353.56;5060351;28;20064;-58
2023/08/07 02:48:35;;;;;;;6.13;3.77;;;;;;;23.40;62.20;100351.13;5071999;28;20063;-59
2023/08/07 02:51:06;;;;;;;5.83;3.90;;;;;;;23.40;62.68;100352.94;5061164;28;20638;-59
2023/08/07 02:53:38;;;;;;;6.03;3.77;;;;;;;23.23;62.34;100346.94;5071873;28;20565;-58
2023/08/07 02:56:10;;;;;;;6.03;3.63;;;;;;;23.36;61.71;100356.75;5059877;28;20032;-58
2023/08/07 02:58:41;;;;;;;8.27;3.80;;;;;;;23.40;60.42;100342.25;5070746;28;20536;-59
2023/08/07 03:01:11;;;;;;;12.07;4.30;;;;;;;23.33;61.15;100351.63;5059878;28;20050;-60
2023/08/07 03:03:42;;;;;;;4.93;3.80;;;;;;;23.27;60.91;100352.06;5069650;28;20490;-58
2023/08/07 03:06:12;;;;;;;6.07;3.93;;;;;;;23.27;60.10;100336.94;5059803;28;20124;-60
2023/08/07 03:08:44;;;;;;;8.60;4.70;;;;;;;23.27;61.08;100349.41;5071113;28;20064;-60
2023/08/07 03:11:15;;;;;;;6.23;4.40;;;;;;;23.35;61.92;100355.91;5059397;28;20068;-58
2023/08/07 03:13:46;;;;;;;10.00;3.77;;;;;;;23.29;62.44;100355.47;5076243;28;20044;-56
2023/08/07 03:16:17;;;;;;;6.87;4.30;;;;;;;23.23;62.93;100362.06;5061639;28;20044;-60
2023/08/07 03:18:48;;;;;;;7.07;3.70;;;;;;;22.90;60.75;100354.50;5077447;28;20050;-59
2023/08/07 03:21:18;;;;;;;7.63;3.97;;;;;;;22.67;61.92;100364.88;5067302;28;20051;-57
2023/08/07 03:23:50;;;;;;;9.40;4.47;;;;;;;22.82;60.23;100357.69;5090393;28;20380;-58
2023/08/07 03:26:21;;;;;;;6.60;3.57;;;;;;;22.91;62.52;100358.88;5066538;28;20598;-59
2023/08/07 03:28:51;;;;;;;9.87;4.13;;;;;;;22.83;61.16;100365.53;5061341;28;20032;-57
2023/08/07 03:31:22;;;;;;;5.70;3.73;;;;;;;22.78;60.90;100372.16;5069427;28;20047;-58
2023/08/07 03:33:53;;;;;;;5.00;3.73;;;;;;;22.84;61.12;100361.09;5059703;28;20048;-57
2023/08/07 03:36:24;;;;;;;9.37;3.87;;;;;;;22.87;62.93;100365.38;5069906;28;20047;-58
2023/08/07 03:38:56;;;;;;;6.43;3.97;;;;;;;22.90;61.57;100373.16;5059009;28;20101;-61
2023/08/07 03:41:27;;;;;;;7.07;3.93;;;;;;;22.79;60.82;100369.38;5070902;28;20462;-60
2023/08/07 03:43:58;;;;;;;7.47;3.70;;;;;;;22.89;63.26;100376.75;5059440;28;20101;-58
2023/08/07 03:46:29;;;;;;;11.20;3.73;;;;;;;23.35;62.98;100373.72;5069193;28;20055;-58
2023/08/07 03:48:59;;;;;;;6.33;3.57;;;;;;;23.53;59.34;100380.47;5060583;28;20047;-57
2023/08/07 03:51:32;;;;;;;6.23;3.80;;;;;;;23.73;60.73;100370.25;5070500;28;20056;-58
2023/08/07 03:54:04;;;;;;;4.97;3.63;;;;;;;23.71;58.94;100372.16;5059746;28;20063;-58
2023/08/07 03:56:36;;;;;;;7.43;3.73;;;;;;;23.56;60.40;100369.56;5052094;28;20051;-57
2023/08/07 03:59:07;;;;;;;8.43;4.20;;;;;;;23.52;60.36;100376.09;5060417;28;20101;-57
2023/08/07 04:01:37;;;;;;;4.60;3.47;;;;;;;23.74;57.33;100387.97;5070638;28;20063;-58
2023/08/07 04:04:08;;;;;;;9.27;3.30;;;;;;;23.87;58.71;100391.50;5058059;28;20135;-58
2023/08/07 04:06:38;;;;;;;8.60;3.37;;;;;;;23.99;58.68;100387.09;5070686;28;20134;-58
2023/08/07 04:09:11;;;;;;;6.70;3.20;;;;;;;24.00;57.73;100395.00;5058858;28;20130;-58
2023/08/07 04:11:42;;;;;;;8.33;3.83;;;;;;;24.01;56.84;100393.19;5070798;28;20046;-59
2023/08/07 04:14:13;;;;;;;4.73;3.57;;;;;;;24.16;56.34;100393.91;5058639;28;20052;-59
2023/08/07 04:16:43;;;;;;;8.53;3.53;;;;;;;24.09;56.07;100404.19;5069520;28;20036;-58
2023/08/07 04:19:14;;;;;;;5.03;3.50;;;;;;;23.90;57.20;100396.63;5060566;28;20200;-58
2023/08/07 04:21:46;;;;;;;5.97;3.80;;;;;;;24.07;57.71;100406.13;5069799;28;20489;-58
2023/08/07 04:24:18;;;;;;;8.30;3.60;;;;;;;24.14;56.73;100401.19;5059069;28;20047;-59
2023/08/07 04:26:48;;;;;;;6.93;3.97;;;;;;;24.03;56.49;100409.97;5068522;28;20063;-58
2023/08/07 04:29:19;;;;;;;5.13;3.50;;;;;;;23.89;56.41;100402.94;5059329;28;20086;-59
2023/08/07 04:31:50;;;;;;;6.00;3.73;;;;;;;23.93;58.33;100393.72;5069601;28;20470;-58
2023/08/07 04:34:20;;;;;;;8.20;4.13;;;;;;;23.76;57.46;100396.72;5068953;28;20467;-60
2023/08/07 04:36:53;;;;;;;8.67;3.80;;;;;;;23.42;58.64;100365.19;5062596;28;20052;-58
2023/08/07 04:39:26;;;;;;;5.70;4.10;;;;;;;23.72;57.72;100408.56;5069966;28;20047;-57
2023/08/07 04:41:56;;;;;;;7.20;4.07;;;;;;;23.94;58.19;100411.47;5058072;28;20109;-59
2023/08/07 04:44:28;;;;;;;7.63;3.43;;;;;;;23.88;57.53;100395.88;5069811;28;20291;-59
2023/08/07 04:46:59;;;;;;;5.83;3.60;;;;;;;23.81;57.94;100399.91;5058836;28;20792;-59
2023/08/07 04:49:29;;;;;;;7.00;3.90;;;;;;;23.83;58.96;100406.00;5069620;28;20048;-57
2023/08/07 04:52:00;;;;;;;8.10;3.80;;;;;;;23.80;57.64;100399.06;5058002;28;20119;-58
2023/08/07 04:54:50;;;;;;;5.85;3.80;;;;;;;23.85;58.17;100390.75;5070467;28;20542;-58
2023/08/07 04:57:21;;;;;;;6.40;3.53;;;;;;;23.96;57.65;100404.19;5060484;28;20355;-57
2023/08/07 04:59:52;;;;;;;9.97;3.90;;;;;;;23.95;56.85;100397.16;5058571;28;20058;-61
2023/08/07 05:02:23;;;;;;;12.40;3.87;;;;;;;24.06;57.58;100396.38;5070029;28;20591;-58
2023/08/07 05:04:54;;;;;;;10.20;3.77;;;;;;;24.04;59.08;100380.50;5058996;28;20386;-58
2023/08/07 05:07:24;;;;;;;9.90;3.60;;;;;;;24.29;59.04;100400.13;5068625;28;20402;-59
2023/08/07 05:09:59;;;;;;;13.00;4.07;;;;;;;24.31;56.50;100395.50;5057964;28;20101;-59
2023/08/07 05:12:29;;;;;;;9.57;4.10;;;;;;;24.21;58.73;100392.66;5068979;28;20158;-59
2023/08/07 05:15:01;;;;;;;7.37;3.30;;;;;;;24.20;57.17;100388.25;5058856;28;20366;-60
2023/08/07 05:17:32;;;;;;;9.50;3.67;;;;;;;24.19;57.20;100388.34;5072038;28;20051;-59
2023/08/07 05:20:03;;;;;;;14.27;4.47;;;;;;;24.19;57.76;100388.34;5063005;28;20356;-59
2023/08/07 05:22:35;;;;;;;17.57;3.97;;;;;;;24.14;57.03;100390.50;5073682;28;20358;-59
2023/08/07 05:25:09;;;;;;;8.87;3.90;;;;;;;23.94;57.29;100374.09;5062965;28;20142;-57
2023/08/07 05:27:40;;;;;;;7.07;3.47;;;;;;;23.94;56.78;100384.78;5071925;28;20071;-58
2023/08/07 05:30:12;;;;;;;8.13;3.73;;;;;;;23.85;56.47;100385.41;5060710;28;20057;-60
2023/08/07 05:32:43;;;;;;;6.77;3.43;;;;;;;23.77;55.59;100379.78;5072042;28;20040;-59
2023/08/07 05:35:13;;;;;;;14.07;3.43;;;;;;;23.78;57.62;100384.13;5061496;28;20054;-57
2023/08/07 05:37:44;;;;;;;6.37;4.20;;;;;;;23.67;57.45;100366.19;5072802;28;20795;-61
2023/08/07 05:40:16;;;;;;;6.30;4.00;;;;;;;23.67;59.07;100383.03;5061030;28;20412;-57
2023/08/07 05:42:46;;;;;;;17.13;4.17;;;;;;;23.84;59.30;100381.06;5081122;28;20039;-56
2023/08/07 05:45:17;;;;;;;10.10;4.43;;;;;;;23.87;57.98;100383.50;5075518;28;20047;-56
2023/08/07 05:47:50;;;;;;;5.20;3.20;;;;;;;23.78;58.46;100373.47;5072488;28;20438;-57
2023/08/07 05:50:21;;;;;;;6.93;3.23;;;;;;;23.50;59.13;100343.34;5072086;28;20070;-57
2023/08/07 05:52:51;;;;;;;7.27;3.50;;;;;;;23.76;59.55;100386.03;5063411;28;20491;-58
2023/08/07 05:55:24;;;;;;;10.93;3.60;;;;;;;23.65;58.10;100395.63;5072756;28;20048;-58
2023/08/07 05:57:54;;;;;;;16.53;4.40;;;;;;;23.63;59.43;100389.53;5062357;28;20467;-59
2023/08/07 06:00:25;;;;;;;9.73;3.83;;;;;;;23.69;59.11;100394.47;5072209;28;20055;-56
2023/08/07 06:02:55;;;;;;;6.63;3.70;;;;;;;23.75;58.33;100376.34;5061851;28;20048;-57
2023/08/07 06:05:26;;;;;;;7.70;3.73;;;;;;;23.71;59.12;100372.16;5072138;28;20063;-60
2023/08/07 06:07:56;;;;;;;7.47;3.70;;;;;;;23.23;59.62;100336.25;5062409;28;20052;-58
2023/08/07 06:10:29;;;;;;;4.63;3.30;;;;;;;23.62;60.90;100395.00;5072717;28;20039;-59
2023/08/07 06:12:59;;;;;;;10.83;4.10;;;;;;;23.57;59.12;100391.78;5062168;28;20056;-59
2023/08/07 06:15:34;;;;;;;6.47;3.93;;;;;;;23.51;59.34;100393.03;5071723;28;20075;-57
2023/08/07 06:18:04;;;;;;;7.13;3.80;;;;;;;23.54;60.75;100398.19;5060651;28;20063;-58
2023/08/07 06:20:36;;;;;;;7.17;3.60;;;;;;;23.57;58.61;100402.47;5073474;28;20442;-59
2023/08/07 06:23:07;;;;;;;5.50;3.30;;;;;;;23.49;60.70;100384.31;5081616;28;20055;-59
2023/08/07 06:25:40;;;;;;;8.20;3.20;;;;;;;23.47;58.82;100391.56;5095041;28;20534;-60
2023/08/07 06:28:12;;;;;;;5.97;3.83;;;;;;;23.55;58.76;100405.22;5093582;28;20465;-57
2023/08/07 06:30:43;;;;;;;13.87;3.73;;;;;;;23.73;58.70;100415.63;5093969;28;20134;-58
2023/08/07 06:33:13;;;;;;;10.63;3.77;;;;;;;23.78;56.94;100408.16;5073657;28;20105;-59
2023/08/07 06:35:44;;;;;;;5.33;3.40;;;;;;;23.74;56.95;100410.19;5081309;28;20346;-59
2023/08/07 06:38:14;;;;;;;5.93;2.70;;;;;;;23.71;54.35;100409.50;5063997;28;20044;-59
2023/08/07 06:40:46;;;;;;;8.03;2.57;;;;;;;23.67;54.56;100409.72;5087149;28;20097;-59
2023/08/07 06:43:17;;;;;;;5.67;3.20;;;;;;;23.73;55.28;100410.28;5101765;28;20078;-58
2023/08/07 06:45:50;;;;;;;4.43;3.07;;;;;;;23.76;55.13;100416.25;5115688;28;20075;-59
2023/08/07 06:48:21;;;;;;;9.10;3.40;;;;;;;23.76;54.26;100402.06;5107520;28;20123;-60
2023/08/07 06:50:53;;;;;;;7.53;3.30;;;;;;;23.85;53.51;100422.78;5082116;28;20051;-59
2023/08/07 06:53:23;;;;;;;8.03;3.20;;;;;;;23.94;53.55;100424.81;5079706;28;20055;-58
2023/08/07 06:55:55;;;;;;;8.40;3.30;;;;;;;23.57;53.37;100371.28;5080035;28;20465;-60
2023/08/07 06:58:26;;;;;;;13.73;3.50;;;;;;;23.83;54.13;100430.03;5086579;28;20048;-59
2023/08/07 07:00:57;;;;;;;13.43;2.93;;;;;;;23.65;52.32;100427.63;5077417;28;20348;-58
2023/08/07 07:03:27;;;;;;;8.43;3.30;;;;;;;23.60;52.83;100435.09;5077759;28;20135;-59
2023/08/07 07:05:58;;;;;;;9.87;2.83;;;;;;;23.55;53.29;100426.56;5065579;28;20131;-58
2023/08/07 07:08:29;;;;;;;7.43;2.90;;;;;;;23.71;54.16;100446.84;5072896;28;20032;-60
2023/08/07 07:11:01;;;;;;;6.87;3.37;;;;;;;23.53;53.68;100447.13;5073622;28;20040;-59
2023/08/07 07:13:31;;;;;;;8.57;4.20;;;;;;;23.37;55.22;100459.81;5084768;28;20071;-59
2023/08/07 07:16:02;;;;;;;8.73;4.03;;;;;;;23.36;57.96;100460.75;5069811;28;20063;-59
2023/08/07 07:18:33;;;;;;;8.73;3.40;;;;;;;23.19;58.90;100469.88;5068957;28;20043;-57
2023/08/07 07:21:03;;;;;;;5.67;3.23;;;;;;;22.80;59.87;100440.34;5058867;28;20443;-59
2023/08/07 07:23:34;;;;;;;11.10;5.10;;;;;;;22.75;60.91;100471.75;5071181;28;20052;-58
2023/08/07 07:26:06;;;;;;;10.00;6.10;;;;;;;22.54;61.48;100475.78;5060876;28;20344;-58
2023/08/07 07:28:37;;;;;;;7.17;3.17;;;;;;;22.37;62.23;100477.69;5071255;28;20051;-60
2023/08/07 07:31:11;;;;;;;7.43;3.93;;;;;;;22.37;63.35;100480.38;5059732;28;20443;-58
2023/08/07 07:33:41;;;;;;;16.33;7.37;;;;;;;22.35;63.21;100482.25;5070171;28;20040;-58
2023/08/07 07:36:17;;;;;;;46.60;30.90;;;;;;;22.24;63.69;100490.06;5058180;28;20493;-58
2023/08/07 07:38:48;;;;;;;18.07;9.10;;;;;;;22.32;63.26;100487.78;5067806;28;20075;-58
2023/08/07 07:41:20;;;;;;;11.33;4.27;;;;;;;22.40;63.60;100484.63;5060627;28;20086;-58
2023/08/07 07:43:51;;;;;;;12.07;6.43;;;;;;;22.58;63.98;100487.94;5062158;28;20095;-57
2023/08/07 07:46:24;;;;;;;14.13;9.67;;;;;;;22.81;63.84;100490.03;5069601;28;20048;-55
2023/08/07 07:48:55;;;;;;;21.30;14.10;;;;;;;22.33;61.92;100393.66;5059302;28;20377;-59
2023/08/07 07:51:26;;;;;;;11.50;5.13;;;;;;;22.78;62.64;100468.88;5071677;28;20060;-58
2023/08/07 07:53:57;;;;;;;8.90;3.13;;;;;;;23.12;62.58;100493.41;5060130;28;20488;-58
2023/08/07 07:56:45;;;;;;;7.60;2.97;;;;;;;23.11;62.29;100507.66;5069260;28;20139;-58
2023/08/07 07:59:16;;;;;;;7.43;3.23;;;;;;;23.12;62.06;100504.06;5058080;28;20048;-57
2023/08/07 08:01:46;;;;;;;8.43;3.20;;;;;;;23.07;62.70;100514.19;5070516;28;20078;-58
2023/08/07 08:04:17;;;;;;;8.07;3.30;;;;;;;23.03;62.77;100513.50;5059638;28;20063;-59
2023/08/07 08:06:48;;;;;;;6.40;3.20;;;;;;;22.99;62.60;100498.69;5069799;28;20047;-57
2023/08/07 08:09:19;;;;;;;8.50;3.40;;;;;;;22.96;62.21;100513.97;5059375;28;20044;-59
2023/08/07 08:11:51;;;;;;;9.00;3.73;;;;;;;22.90;62.63;100515.22;5067866;28;20423;-58
2023/08/07 08:14:21;;;;;;;6.13;3.57;;;;;;;22.86;62.63;100512.84;5067835;28;20059;-58
2023/08/07 08:16:52;;;;;;;7.53;3.17;;;;;;;22.78;62.75;100516.84;5058543;28;20044;-59
2023/08/07 08:19:23;;;;;;;9.70;3.50;;;;;;;22.72;62.55;100511.91;5069545;28;20040;-59
2023/08/07 08:21:55;;;;;;;8.77;3.53;;;;;;;22.69;62.96;100509.44;5056898;28;20067;-58
2023/08/07 08:24:26;;;;;;;13.90;4.00;;;;;;;22.58;62.20;100509.25;5069234;28;20047;-58
2023/08/07 08:26:59;;;;;;;10.80;3.63;;;;;;;22.49;62.75;100515.16;5058323;28;20087;-57
2023/08/07 08:29:29;;;;;;;8.90;3.70;;;;;;;22.46;62.88;100521.53;5070688;28;20044;-58
2023/08/07 08:32:00;;;;;;;9.40;4.00;;;;;;;22.45;63.18;100516.31;5059857;28;20499;-58
2023/08/07 08:34:31;;;;;;;7.50;3.40;;;;;;;22.39;62.96;100518.41;5069805;28;20138;-58
2023/08/07 08:37:01;;;;;;;8.87;3.50;;;;;;;22.33;63.24;100516.09;5059331;28;20055;-58
2023/08/07 08:39:32;;;;;;;12.20;4.07;;;;;;;22.24;63.20;100522.00;5070120;28;20074;-58
2023/08/07 08:42:05;;;;;;;6.87;3.77;;;;;;;22.16;62.73;100518.91;5059597;28;20070;-59
2023/08/07 08:44:40;;;;;;;8.97;3.53;;;;;;;22.12;63.91;100528.03;5069954;28;20063;-56
2023/08/07 08:47:12;;;;;;;6.33;3.50;;;;;;;22.15;63.95;100523.38;5057382;28;20119;-58
2023/08/07 08:49:48;;;;;;;13.10;3.53;;;;;;;22.14;63.98;100531.44;5069650;28;20060;-58
2023/08/07 08:52:19;;;;;;;5.70;3.73;;;;;;;22.04;64.42;100519.63;5063052;28;20481;-58
2023/08/07 08:54:49;;;;;;;7.57;3.50;;;;;;;21.96;64.31;100517.44;5071793;28;20083;-59
2023/08/07 08:57:23;;;;;;;10.80;5.10;;;;;;;22.02;65.33;100533.06;5062825;28;20128;-58
2023/08/07 08:59:53;;;;;;;13.13;3.97;;;;;;;21.92;66.19;100532.75;5063215;28;20362;-57
2023/08/07 09:02:24;;;;;;;12.87;3.77;;;;;;;22.02;66.10;100542.84;5073704;28;20107;-57
2023/08/07 09:05:13;;;;;;;14.90;4.40;;;;;;;21.97;66.10;100546.63;5062456;28;20048;-56
2023/08/07 09:07:49;;;;;;;10.00;3.50;;;;;;;21.84;66.07;100545.66;5072458;28;20062;-58
2023/08/07 09:10:25;;;;;;;9.80;3.28;;;;;;;21.72;65.97;100557.00;5062872;28;20066;-57
2023/08/07 09:13:03;;;;;;;8.67;3.33;;;;;;;21.61;66.36;100548.78;5062798;28;20055;-58
2023/08/07 09:15:50;;;;;;;8.10;3.90;;;;;;;21.54;66.02;100559.78;5072923;28;20052;-59
2023/08/07 09:18:24;;;;;;;7.60;3.63;;;;;;;21.42;66.50;100560.47;5061922;28;20055;-58
2023/08/07 09:21:07;;;;;;;6.77;3.50;;;;;;;21.30;67.21;100564.63;5062611;28;20075;-59
2023/08/07 09:24:12;;;;;;;6.47;4.07;;;;;;;21.16;67.35;100564.53;5033717;28;20286;-59
2023/08/07 09:30:01;;;;;;;13.23;3.77;;;;;;;20.75;68.14;100558.88;5059100;28;20335;-58
2023/08/07 09:32:34;;;;;;;10.23;3.90;;;;;;;20.63;69.00;100565.69;5074138;28;21775;-58
2023/08/07 09:35:08;;;;;;;9.40;3.70;;;;;;;20.34;70.46;100564.53;5062456;28;20294;-58
2023/08/07 09:37:40;;;;;;;11.33;4.03;;;;;;;20.04;71.10;100573.13;5071416;28;20369;-58
2023/08/07 09:40:15;;;;;;;9.87;4.30;;;;;;;19.89;71.71;100573.91;5062029;28;20296;-59
2023/08/07 09:42:51;;;;;;;10.67;3.60;;;;;;;19.67;72.44;100575.00;5071209;28;20290;-59
2023/08/07 09:45:27;;;;;;;7.43;3.63;;;;;;;19.51;72.63;100581.94;5062599;28;20274;-58
2023/08/07 09:48:03;;;;;;;11.33;3.80;;;;;;;19.26;73.67;100579.59;5062292;28;20282;-59
2023/08/07 09:50:35;;;;;;;7.77;3.70;;;;;;;19.17;74.02;100586.19;5072173;28;20792;-59
2023/08/07 09:53:07;;;;;;;10.63;3.97;;;;;;;19.03;74.43;100588.63;5063914;28;20294;-58
2023/08/07 09:55:39;;;;;;;7.33;3.90;;;;;;;18.92;74.93;100597.94;5072822;28;20620;-58
2023/08/07 09:58:15;;;;;;;9.33;4.20;;;;;;;18.78;75.81;100600.31;5060664;28;20277;-59
2023/08/07 10:00:53;;;;;;;7.13;3.60;;;;;;;18.66;76.56;100607.00;5072051;28;20293;-58
2023/08/07 10:03:25;;;;;;;11.50;4.00;;;;;;;18.53;77.41;100608.47;5058816;28;20285;-58
2023/08/07 10:05:57;;;;;;;7.47;3.73;;;;;;;18.36;78.17;100609.19;5062610;28;20740;-59
2023/08/07 10:08:30;;;;;;;6.30;3.77;;;;;;;18.36;78.75;100619.78;5071923;28;20624;-58
2023/08/07 10:11:02;;;;;;;11.00;4.00;;;;;;;18.26;79.68;100623.75;5061108;28;20749;-58
2023/08/07 10:13:35;;;;;;;10.13;4.10;;;;;;;18.21;80.33;100631.00;5071105;28;20283;-58
2023/08/07 10:16:14;;;;;;;7.93;3.93;;;;;;;18.10;80.72;100639.41;5061172;28;20755;-58
2023/08/07 10:18:47;;;;;;;10.03;4.03;;;;;;;17.96;81.60;100642.59;5071486;28;20289;-58
2023/08/07 10:21:19;;;;;;;6.47;4.30;;;;;;;17.93;82.42;100647.19;5060670;28;20377;-59
2023/08/07 10:23:55;;;;;;;6.17;3.97;;;;;;;17.86;82.89;100651.84;5069152;28;20786;-59
2023/08/07 10:26:29;;;;;;;10.13;4.67;;;;;;;17.79;83.55;100661.75;5070993;28;20277;-59
2023/08/07 10:29:04;;;;;;;8.37;4.30;;;;;;;17.73;84.09;100662.00;5060989;28;20278;-59
2023/08/07 10:31:39;;;;;;;8.07;4.10;;;;;;;17.35;84.87;100634.47;5072005;28;20293;-59
2023/08/07 10:34:14;;;;;;;9.07;4.70;;;;;;;17.53;85.57;100676.00;5059930;28;20302;-59
2023/08/07 10:36:47;;;;;;;9.10;4.40;;;;;;;17.39;86.41;100662.47;5071021;28;20294;-59
2023/08/07 10:39:22;;;;;;;8.60;4.50;;;;;;;17.42;87.03;100680.81;5060847;28;20377;-59
2023/08/07 10:41:57;;;;;;;10.83;4.83;;;;;;;17.37;87.39;100690.72;5060205;28;20281;-59
2023/08/07 10:44:33;;;;;;;6.10;4.50;;;;;;;17.27;87.96;100684.06;5071903;28;20325;-60
2023/08/07 10:47:08;;;;;;;9.40;4.93;;;;;;;17.27;88.52;100694.63;5060208;28;20285;-59
2023/08/07 10:49:40;;;;;;;8.63;5.30;;;;;;;17.22;89.08;100690.38;5071383;28;20274;-58
2023/08/07 10:52:14;;;;;;;14.00;5.03;;;;;;;17.12;89.89;100694.25;5060275;28;20287;-60
2023/08/07 10:54:50;;;;;;;7.67;4.37;;;;;;;17.03;90.48;100684.06;5070951;28;20274;-60
2023/08/07 10:57:23;;;;;;;8.33;4.97;;;;;;;17.03;91.01;100692.81;5060517;28;20799;-59
2023/08/07 11:00:06;;;;;;;12.70;5.50;;;;;;;16.97;91.23;100693.06;5061128;28;20578;-59
2023/08/07 11:02:44;;;;;;;9.00;5.20;;;;;;;16.87;91.51;100680.22;5071188;28;20305;-59
2023/08/07 11:05:16;;;;;;;7.07;5.03;;;;;;;16.93;91.96;100706.41;5060178;28;20294;-59
2023/08/07 11:07:49;;;;;;;13.77;5.37;;;;;;;16.89;92.55;100694.22;5071085;28;20350;-60
2023/08/07 11:10:21;;;;;;;6.77;4.60;;;;;;;16.83;92.62;100683.91;5061136;28;20752;-60
2023/08/07 11:12:53;;;;;;;8.67;5.23;;;;;;;16.66;92.93;100672.13;5060691;28;20308;-58
2023/08/07 11:15:25;;;;;;;9.10;4.87;;;;;;;16.76;93.04;100689.34;5070361;28;20622;-60
2023/08/07 11:18:00;;;;;;;10.80;5.00;;;;;;;16.65;92.75;100690.63;5059463;28;20284;-60
2023/08/07 11:20:32;;;;;;;8.40;5.27;;;;;;;16.48;92.83;100696.50;5072541;28;20285;-61
2023/08/07 11:23:03;;;;;;;13.03;4.97;;;;;;;16.28;93.29;100699.81;5070030;28;20888;-59
2023/08/07 11:25:38;;;;;;;10.77;5.33;;;;;;;16.06;94.04;100702.28;5071342;28;20302;-60
2023/08/07 11:28:10;;;;;;;14.07;5.40;;;;;;;15.85;94.99;100702.06;5059656;28;20305;-60
2023/08/07 11:30:42;;;;;;;17.83;5.87;;;;;;;15.72;96.36;100698.06;5070127;28;20290;-59
2023/08/07 11:33:33;;;;;;;12.77;4.87;;;;;;;15.45;97.52;100682.16;5022344;28;20286;-60
2023/08/07 11:36:14;;;;;;;11.20;4.93;;;;;;;15.54;98.65;100695.03;5019649;28;20286;-61
2023/08/07 11:38:49;;;;;;;10.03;5.00;;;;;;;15.49;99.28;100702.22;5030549;28;20320;-60
2023/08/07 11:41:22;;;;;;;8.83;4.97;;;;;;;15.47;99.49;100697.91;5019151;28;20294;-60
2023/08/07 11:43:57;;;;;;;9.57;4.07;;;;;;;15.36;99.21;100695.59;5020928;28;20286;-59
2023/08/07 11:46:30;;;;;;;8.20;4.67;;;;;;;15.19;99.73;100703.13;5033419;28;20302;-60
2023/08/07 11:49:05;;;;;;;12.83;4.33;;;;;;;14.96;100.00;100680.94;5022688;28;20358;-62